»·PEaware :: DLH4243 KPHX-KLAX

DLH4243 :: KPHX-KLAX

FLIGHT INFORMATION

Flight Status: Arrived
Operator:
Lufthansa
More flights by this operator :: More flights under this callsign
Pilot: Sean Bradley (13609)
Aircraft: BOEING 757-200
(B752)
More flights by this aircraft type
Origin: KPHX Phoenix Sky Harbor Intl
United States
Destination: KLAX Los Angeles Intl
United States
More flights between these airports :: More routes between these airports
Route: +IZZZO5 MESSI PKE TNP SEAVU2
File this flight plan on PilotEdge
Remarks:
Altitude:
(Current/Filed)
32,000ft
Speed:
(Current/Filed)
430kts
Departed: 06-Jan-17 09:30 PM
Arrived: 06-Jan-17 10:43 PM
Distance/Time
Traveled:
320nm/1:12
Distance/Time
To Go:
Arrived

Flight Plot

Page will automatically refresh every two minutes.

Flight plan parsing failed; only flown route is shown


Map Options




Map Legend


Flown Route
Filed Route
Departure Airport
Arrival Airport
Navaid (VOR, NDB)
Fix

Horizontal Profiles

Position Reports

Time Latitude Longitude Heading Altitude Ground
Speed
06-Jan-17 20:59 33.434055 -112.008140 290 1133ft 0kts
06-Jan-17 21:00 33.434055 -112.008140 290 1133ft 0kts
06-Jan-17 21:01 33.434055 -112.008140 290 1133ft 0kts
06-Jan-17 21:02 33.434055 -112.008140 290 1133ft 0kts
06-Jan-17 21:03 33.434055 -112.008140 290 1133ft 0kts
06-Jan-17 21:04 33.434055 -112.008140 290 1133ft 0kts
06-Jan-17 21:05 33.434055 -112.008140 290 1133ft 0kts
06-Jan-17 21:06 33.434055 -112.008140 290 1133ft 0kts
06-Jan-17 21:07 33.434055 -112.008140 290 1133ft 0kts
06-Jan-17 21:08 33.434055 -112.008140 290 1133ft 0kts
06-Jan-17 21:09 33.434055 -112.008140 290 1133ft 0kts
06-Jan-17 21:10 33.434055 -112.008140 290 1133ft 0kts
06-Jan-17 21:11 33.434055 -112.008140 290 1133ft 0kts
06-Jan-17 21:12 33.434055 -112.008140 290 1133ft 0kts
06-Jan-17 21:13 33.434055 -112.008140 290 1133ft 0kts
06-Jan-17 21:14 33.434055 -112.008140 290 1133ft 0kts
06-Jan-17 21:15 33.434055 -112.008140 290 1133ft 0kts
06-Jan-17 21:16 33.434021 -112.008030 287 1133ft 2kts
06-Jan-17 21:17 33.434198 -112.007616 184 1132ft 0kts
06-Jan-17 21:18 33.434198 -112.007616 184 1132ft 0kts
06-Jan-17 21:19 33.434198 -112.007616 184 1132ft 0kts
06-Jan-17 21:20 33.434198 -112.007616 184 1132ft 0kts
06-Jan-17 21:21 33.434043 -112.007590 172 1132ft 6kts
06-Jan-17 21:22 33.433521 -112.007557 179 1132ft 0kts
06-Jan-17 21:23 33.433449 -112.007555 179 1132ft 3kts
06-Jan-17 21:24 33.432886 -112.010024 269 1130ft 15kts
06-Jan-17 21:25 33.432881 -112.015953 270 1125ft 18kts
06-Jan-17 21:26 33.432887 -112.021626 270 1120ft 19kts
06-Jan-17 21:27 33.432894 -112.026661 270 1117ft 0kts
06-Jan-17 21:28 33.432113 -112.026972 186 1117ft 0kts
06-Jan-17 21:29 33.431692 -112.026981 179 1117ft 9kts
06-Jan-17 21:30 33.431049 -112.012587 90 1139ft 158kts
06-Jan-17 21:31 33.431713 -111.958599 88 2760ft 218kts
06-Jan-17 21:32 33.433653 -111.897634 86 5511ft 233kts
06-Jan-17 21:33 33.406354 -111.848876 157 8018ft 242kts
06-Jan-17 21:34 33.355094 -111.877023 260 10875ft 231kts
06-Jan-17 21:35 33.359904 -111.950333 281 13128ft 256kts
06-Jan-17 21:36 33.371186 -112.032591 281 14068ft 329kts
06-Jan-17 21:37 33.384376 -112.126840 281 17120ft 332kts
06-Jan-17 21:38 33.398637 -112.228741 281 19785ft 340kts
06-Jan-17 21:39 33.414158 -112.340725 281 22195ft 351kts
06-Jan-17 21:40 33.430256 -112.456869 281 24378ft 360kts
06-Jan-17 21:41 33.446485 -112.575490 282 26351ft 366kts
06-Jan-17 21:42 33.450882 -112.696448 275 28037ft 376kts
06-Jan-17 21:43 33.460861 -112.819045 292 29923ft 368kts
06-Jan-17 21:44 33.498358 -112.928116 292 31937ft 358kts
06-Jan-17 21:45 33.535917 -113.035953 292 32230ft 354kts
06-Jan-17 21:46 33.573503 -113.143955 292 32233ft 353kts
06-Jan-17 21:47 33.608210 -113.243946 292 32229ft 353kts
06-Jan-17 21:48 33.644527 -113.348920 292 32229ft 353kts
06-Jan-17 21:49 33.681344 -113.455676 292 32227ft 353kts
06-Jan-17 21:50 33.718384 -113.563446 292 32225ft 353kts
06-Jan-17 21:51 33.751000 -113.658656 292 32230ft 353kts
06-Jan-17 21:52 33.787106 -113.764364 292 32278ft 357kts
06-Jan-17 21:53 33.825093 -113.874215 292 32273ft 357kts
06-Jan-17 21:54 33.863114 -113.983740 292 32268ft 358kts
06-Jan-17 21:55 33.898965 -114.087684 292 32268ft 357kts
06-Jan-17 21:56 33.934197 -114.190001 292 32265ft 357kts
06-Jan-17 21:57 33.968352 -114.289369 292 32263ft 356kts
06-Jan-17 21:58 34.000430 -114.382990 292 32263ft 357kts
06-Jan-17 21:59 34.034424 -114.482815 292 32261ft 357kts
06-Jan-17 22:00 34.071730 -114.592515 292 32253ft 356kts
06-Jan-17 22:01 34.100072 -114.689842 278 32281ft 359kts
06-Jan-17 22:02 34.102696 -114.784597 273 32280ft 368kts
06-Jan-17 22:03 34.104451 -114.900707 272 32271ft 377kts
06-Jan-17 22:04 34.105799 -115.014057 272 32281ft 377kts
06-Jan-17 22:05 34.107128 -115.136953 272 32272ft 376kts
06-Jan-17 22:06 34.108273 -115.255423 272 32275ft 377kts
06-Jan-17 22:07 34.109259 -115.368265 272 32275ft 377kts
06-Jan-17 22:08 34.109674 -115.494540 271 32310ft 377kts
06-Jan-17 22:09 34.109806 -115.620274 272 32313ft 377kts
06-Jan-17 22:10 34.111191 -115.741924 271 32333ft 377kts
06-Jan-17 22:11 34.096696 -115.865160 263 31388ft 372kts
06-Jan-17 22:12 34.081095 -115.974112 262 30534ft 375kts
06-Jan-17 22:13 34.064730 -116.086573 262 29645ft 375kts
06-Jan-17 22:14 34.047220 -116.203907 262 28694ft 372kts
06-Jan-17 22:15 34.029880 -116.318839 261 27392ft 365kts
06-Jan-17 22:16 34.013827 -116.424548 261 25572ft 359kts
06-Jan-17 22:17 34.001026 -116.532942 265 24267ft 347kts
06-Jan-17 22:18 33.994410 -116.617127 265 24274ft 352kts
06-Jan-17 22:19 33.987641 -116.701657 264 23195ft 366kts
06-Jan-17 22:20 33.979992 -116.795889 264 21503ft 339kts
06-Jan-17 22:21 33.971897 -116.894661 264 20082ft 334kts
06-Jan-17 22:22 33.964663 -116.982102 264 18859ft 329kts
06-Jan-17 22:23 33.956576 -117.078980 264 17533ft 324kts
06-Jan-17 22:24 33.947787 -117.183265 264 16198ft 314kts
06-Jan-17 22:25 33.939513 -117.280521 264 14845ft 310kts
06-Jan-17 22:26 33.934948 -117.378293 282 13461ft 307kts
06-Jan-17 22:27 33.959591 -117.451505 290 12397ft 308kts
06-Jan-17 22:28 33.991764 -117.542232 290 11038ft 306kts
06-Jan-17 22:29 34.010957 -117.624929 263 10286ft 282kts
06-Jan-17 22:30 34.005139 -117.693576 262 10006ft 253kts
06-Jan-17 22:31 33.997879 -117.770488 262 9337ft 255kts
06-Jan-17 22:32 33.991616 -117.834623 262 8305ft 263kts
06-Jan-17 22:33 33.985124 -117.904208 263 7254ft 254kts
06-Jan-17 22:34 33.978685 -117.972965 262 6855ft 228kts
06-Jan-17 22:35 33.973017 -118.031356 262 5897ft 220kts
06-Jan-17 22:36 33.967036 -118.091809 262 4960ft 210kts
06-Jan-17 22:37 33.961178 -118.149881 261 3962ft 208kts
06-Jan-17 22:38 33.956353 -118.197628 262 3161ft 207kts
06-Jan-17 22:39 33.950906 -118.251036 263 2239ft 185kts
06-Jan-17 22:40 33.945979 -118.299131 264 1538ft 153kts
06-Jan-17 22:41 33.941444 -118.343127 263 744ft 151kts
06-Jan-17 22:42 33.936990 -118.386587 264 121ft 133kts
06-Jan-17 22:43 33.934988 -118.406953 284 130ft 15kts
06-Jan-17 22:44 33.935722 -118.407398 354 130ft 0kts
06-Jan-17 22:45 33.935722 -118.407398 354 130ft 0kts
06-Jan-17 22:46 33.936307 -118.408726 323 130ft 15kts
06-Jan-17 22:47 33.938758 -118.408259 83 130ft 14kts
06-Jan-17 22:48 33.939275 -118.403166 83 123ft 21kts
06-Jan-17 22:49 33.939689 -118.399317 82 118ft 17kts
06-Jan-17 22:50 33.941875 -118.398345 352 117ft 10kts
06-Jan-17 22:51 33.942215 -118.399058 265 118ft 0kts
06-Jan-17 22:52 33.942215 -118.399058 265 118ft 0kts
06-Jan-17 22:53 33.942215 -118.399058 265 118ft 0kts
06-Jan-17 22:54 33.942215 -118.399058 265 118ft 0kts
06-Jan-17 22:55 33.942215 -118.399058 265 118ft 0kts
06-Jan-17 22:56 33.942215 -118.399058 265 118ft 0kts

Navigation Log

Ident Type Via Name
Flight plan parsing failed, navigation log unavailable